الصفحة الرئيسية
METAR-TAF:

METAR-TAF

مطار :

مطار ليوبولد سيدار سنغور الدولي

دكار, السنغال

دائرة عرض: 14-44N, خط طول: 017-30W, ارتفاع: 27 متر

مراقبة الطقس الحالي

تاريخ ووقت الإصدار 23 دقيقة قبل الساعة 00:00UTC
ريح 6 عقدة من الغرب
درجة الحرارة 27°درجة مئوية
الرطوبة 84%
ضغط 1014 hPa
الرؤية: 8000 متر
غيوم متفرقة على ارتفاع 1300 قدم

METAR: GOOY 180000Z 28006KT 8000 SCT013 27/24 Q1014 NOSIG

زمن: 00:23 (00:23 UTC)

توقعات

تاريخ ووقت الإصدار 53 دقيقة قبل الساعة 23:30UTC
التوقعات صالحة من18 الساعة 00 UTC إلى 19 الساعة 06 UTC
ريح 8 عقدة من الغرب/الشمال الغربي
الرؤية 10 كم أو أكثر
غيوم متفرقة على ارتفاع 1300 قدم

TAF: GOOY 172330Z 1800/1906 30008KT 9999 SCT013

أرصاد الطقس والتوقعات من أكثر من 4000 مطار (تقارير الطقس للمطار METAR والتنبؤ بالطقس بالمطارTAF).

المحطات المتاحة هي النقط الصفراء والحمراء على الخريطة.

حرك المؤشر فوق النقطة لمعرفة اسم المحطة.

ثم انقر لمعرفة أرصاد وتوقعات الطقس.

لتغيير الخارطة: اضغط على الأزرار الخضراء مع رمز الصليب الأسود للتكبير. على الزر الأخضر مع شرطة للتصغير، أو على الأسهم الخضراء للخرائط المجاورة.


METAR-TAF: